createdAt,value
2017-11-13T00:02:20.935Z,22.75
2017-11-13T00:04:51.703Z,23.62
2017-11-13T00:07:25.375Z,24.30
2017-11-13T00:09:54.227Z,23.20
2017-11-13T00:12:22.258Z,24.73
2017-11-13T00:14:52.251Z,27.40
2017-11-13T00:17:22.079Z,23.08
2017-11-13T00:19:50.151Z,22.00
2017-11-13T00:22:18.191Z,23.33
2017-11-13T00:24:48.198Z,25.12
2017-11-13T00:27:17.230Z,31.75
2017-11-13T00:29:45.255Z,25.02
2017-11-13T00:32:16.615Z,22.30
2017-11-13T00:34:44.651Z,23.08
2017-11-13T00:37:19.730Z,25.50
2017-11-13T00:39:49.523Z,25.00
2017-11-13T00:42:29.294Z,26.35
2017-11-13T00:44:59.999Z,26.20
2017-11-13T00:47:33.098Z,28.38
2017-11-13T00:50:02.097Z,25.60
2017-11-13T00:52:31.079Z,31.27
2017-11-13T00:55:01.137Z,26.70
2017-11-13T00:57:30.090Z,23.45
2017-11-13T00:59:58.122Z,21.50
2017-11-13T01:02:28.903Z,23.62
2017-11-13T01:04:59.662Z,22.30
2017-11-13T01:07:32.634Z,24.87
2017-11-13T01:10:04.494Z,27.23
2017-11-13T01:12:32.594Z,25.80
2017-11-13T01:15:00.662Z,22.85
2017-11-13T01:17:28.700Z,26.35
2017-11-13T01:20:00.934Z,22.98
2017-11-13T01:22:29.958Z,24.58
2017-11-13T01:24:59.159Z,23.33
2017-11-13T01:27:27.274Z,24.50
2017-11-13T01:30:07.767Z,22.58
2017-11-13T01:32:36.806Z,26.90
2017-11-13T01:35:06.802Z,24.85
2017-11-13T01:37:36.530Z,23.92
2017-11-13T01:40:08.254Z,26.20
2017-11-13T01:42:36.306Z,30.75
2017-11-13T01:45:04.338Z,25.58
2017-11-13T01:47:33.278Z,30.60
2017-11-13T01:50:03.338Z,30.00
2017-11-13T01:52:33.322Z,33.38
2017-11-13T01:55:04.066Z,34.17
2017-11-13T01:57:33.901Z,28.58
2017-11-13T02:00:01.920Z,29.63
2017-11-13T02:02:41.438Z,25.45
2017-11-13T02:05:10.462Z,28.80
2017-11-13T02:07:38.541Z,27.92
2017-11-13T02:10:06.582Z,28.05
2017-11-13T02:12:38.418Z,31.95
2017-11-13T02:15:07.482Z,29.17
2017-11-13T02:17:36.469Z,27.55
2017-11-13T02:20:07.250Z,27.17
2017-11-13T02:22:37.325Z,30.92
2017-11-13T02:25:09.350Z,28.50
2017-11-13T02:27:39.389Z,26.00
2017-11-13T02:30:10.378Z,29.73
2017-11-13T02:32:48.323Z,30.00
2017-11-13T02:35:16.378Z,29.87
2017-11-13T02:37:48.897Z,31.42
2017-11-13T02:40:18.932Z,31.08
2017-11-13T02:42:51.858Z,29.45
2017-11-13T02:45:19.925Z,30.75
2017-11-13T02:47:52.225Z,28.15
2017-11-13T02:50:24.913Z,34.80
2017-11-13T02:52:54.927Z,33.08
2017-11-13T02:55:23.719Z,35.50
2017-11-13T02:58:02.299Z,31.65
2017-11-13T03:00:33.558Z,29.33
2017-11-13T03:03:01.613Z,32.30
2017-11-13T03:05:29.697Z,29.50
2017-11-13T03:08:06.989Z,28.35
2017-11-13T03:10:35.814Z,28.70
2017-11-13T03:13:03.853Z,30.88
2017-11-13T03:15:33.661Z,29.65
2017-11-13T03:18:02.690Z,32.75
2017-11-13T03:20:34.029Z,30.58
2017-11-13T03:23:08.605Z,29.30
2017-11-13T03:25:42.549Z,32.60
2017-11-13T03:28:20.929Z,32.53
2017-11-13T03:30:52.182Z,27.40
2017-11-13T03:33:26.490Z,31.15
2017-11-13T03:35:54.533Z,33.40
2017-11-13T03:38:26.393Z,29.85
2017-11-13T03:40:56.401Z,37.53
2017-11-13T03:43:26.385Z,32.80
2017-11-13T03:45:54.425Z,36.05
2017-11-13T03:48:25.937Z,31.62
2017-11-13T03:50:56.173Z,31.02
2017-11-13T03:53:30.858Z,35.03
2017-11-13T03:55:58.985Z,33.42
2017-11-13T03:58:32.013Z,34.50
2017-11-13T04:01:00.049Z,39.40
2017-11-13T04:03:34.837Z,33.10
2017-11-13T04:06:02.872Z,31.42
2017-11-13T04:08:35.373Z,36.00
2017-11-13T04:11:06.353Z,31.17
2017-11-13T04:13:34.433Z,30.65
2017-11-13T04:16:04.457Z,30.92
2017-11-13T04:18:33.517Z,28.67
2017-11-13T04:21:02.605Z,28.10
2017-11-13T04:23:31.647Z,30.73
2017-11-13T04:26:10.328Z,32.63
2017-11-13T04:28:44.337Z,27.70
2017-11-13T04:31:16.328Z,27.08
2017-11-13T04:33:44.361Z,26.98
2017-11-13T04:36:17.100Z,30.70
2017-11-13T04:38:48.965Z,26.25
2017-11-13T04:41:18.987Z,29.75
2017-11-13T04:43:51.548Z,25.23
2017-11-13T04:46:26.240Z,27.40
2017-11-13T04:48:55.289Z,32.80
2017-11-13T04:51:24.233Z,27.42
2017-11-13T04:53:53.224Z,31.80
2017-11-13T04:56:22.224Z,30.52
2017-11-13T04:59:00.316Z,29.00
2017-11-13T05:01:28.356Z,28.30
2017-11-13T05:03:56.391Z,29.52
2017-11-13T05:06:30.784Z,28.35
2017-11-13T05:09:01.816Z,27.62
2017-11-13T05:11:30.884Z,30.02
2017-11-13T05:14:02.593Z,27.83
2017-11-13T05:16:33.308Z,31.55
2017-11-13T05:19:09.264Z,35.28
2017-11-13T05:21:37.323Z,29.67
2017-11-13T05:24:11.324Z,28.25
2017-11-13T05:26:41.389Z,36.70
2017-11-13T05:29:11.376Z,26.55
2017-11-13T05:31:47.512Z,32.03
2017-11-13T05:34:23.244Z,32.92
2017-11-13T05:36:52.291Z,29.23
2017-11-13T05:39:26.872Z,28.40
2017-11-13T05:42:00.789Z,29.10
2017-11-13T05:44:43.973Z,28.23
2017-11-13T05:47:21.720Z,30.02
2017-11-13T05:49:50.724Z,28.50
2017-11-13T05:52:18.824Z,31.10
2017-11-13T05:54:46.896Z,28.33
2017-11-13T05:57:15.868Z,30.37
2017-11-13T05:59:50.587Z,26.35
2017-11-13T06:02:19.564Z,31.75
2017-11-13T06:04:52.667Z,27.80
2017-11-13T06:07:21.644Z,27.50
2017-11-13T06:09:50.852Z,29.90
2017-11-13T06:12:20.905Z,29.48
2017-11-13T06:14:48.944Z,30.67
2017-11-13T06:17:22.948Z,29.48
2017-11-13T06:19:51.937Z,31.52
2017-11-13T06:22:27.773Z,30.33
2017-11-13T06:25:13.104Z,34.58
2017-11-13T06:27:48.085Z,36.00
2017-11-13T06:30:17.004Z,32.67
2017-11-13T06:32:49.460Z,32.95
2017-11-13T06:35:18.453Z,31.73
2017-11-13T06:37:50.312Z,30.25
2017-11-13T06:40:18.356Z,33.60
2017-11-13T06:42:47.376Z,29.48
2017-11-13T06:45:18.860Z,34.08
2017-11-13T06:47:46.892Z,30.17
2017-11-13T06:50:14.928Z,29.87
2017-11-13T06:52:42.972Z,37.40
2017-11-13T06:55:11.012Z,35.88
2017-11-13T06:57:39.987Z,33.53
2017-11-13T07:00:08.027Z,36.47
2017-11-13T07:02:36.054Z,36.42
2017-11-13T07:05:05.840Z,34.70
2017-11-13T07:07:33.894Z,36.80
2017-11-13T07:10:01.923Z,36.95
2017-11-13T07:12:29.940Z,37.75
2017-11-13T07:14:58.952Z,35.53
2017-11-13T07:17:31.616Z,35.75
2017-11-13T07:20:02.807Z,36.35
2017-11-13T07:22:30.831Z,34.03
2017-11-13T07:24:59.838Z,32.45
2017-11-13T07:27:28.819Z,34.72
2017-11-13T07:29:56.848Z,41.08
2017-11-13T07:32:24.875Z,35.60
2017-11-13T07:34:58.072Z,38.10
2017-11-13T07:37:27.056Z,34.28
2017-11-13T07:39:59.631Z,31.02
2017-11-13T07:42:27.666Z,32.67
2017-11-13T07:44:55.686Z,37.72
2017-11-13T07:47:24.619Z,31.50
2017-11-13T07:49:54.536Z,33.35
2017-11-13T07:52:22.573Z,37.20
2017-11-13T07:54:50.612Z,34.47
2017-11-13T07:57:18.639Z,33.20
2017-11-13T07:59:52.379Z,33.75
2017-11-13T08:02:21.359Z,34.65
2017-11-13T08:04:50.346Z,30.85
2017-11-13T08:07:18.382Z,30.55
2017-11-13T08:09:47.316Z,30.05
2017-11-13T08:12:15.335Z,29.48
2017-11-13T08:14:43.371Z,34.25
2017-11-13T08:17:11.367Z,26.90
2017-11-13T08:19:41.283Z,26.05
2017-11-13T08:22:10.254Z,25.42
2017-11-13T08:24:39.039Z,27.30
2017-11-13T08:27:08.832Z,25.58
2017-11-13T08:29:36.884Z,25.52
2017-11-13T08:32:12.518Z,22.87
2017-11-13T08:34:42.467Z,29.02
2017-11-13T08:37:10.503Z,27.80
2017-11-13T08:39:40.439Z,22.37
2017-11-13T08:42:08.481Z,22.67
2017-11-13T08:44:36.507Z,24.58
2017-11-13T08:47:05.420Z,22.55
2017-11-13T08:49:35.383Z,21.85
2017-11-13T08:52:06.843Z,20.95
2017-11-13T08:54:34.879Z,20.42
2017-11-13T08:57:02.902Z,22.75
2017-11-13T08:59:31.690Z,19.08
2017-11-13T09:02:00.495Z,25.52
2017-11-13T09:04:28.518Z,20.25
2017-11-13T09:07:03.143Z,21.35
2017-11-13T09:09:31.903Z,22.48
2017-11-13T09:12:04.454Z,17.17
2017-11-13T09:14:32.479Z,19.12
2017-11-13T09:17:01.399Z,17.40
2017-11-13T09:19:31.099Z,20.37
2017-11-13T09:22:00.074Z,15.43
2017-11-13T09:24:29.930Z,16.45
2017-11-13T09:26:57.979Z,17.12
2017-11-13T09:29:26.762Z,16.62
2017-11-13T09:31:59.220Z,17.00
2017-11-13T09:34:32.831Z,18.62
2017-11-13T09:37:02.250Z,12.90
2017-11-13T09:39:31.819Z,14.27
2017-11-13T09:42:01.754Z,14.68
2017-11-13T09:44:31.680Z,14.82
2017-11-13T09:47:01.470Z,10.48
2017-11-13T09:49:34.962Z,10.27
2017-11-13T09:52:05.004Z,10.05
2017-11-13T09:54:35.673Z,9.40
2017-11-13T09:57:07.814Z,10.07
2017-11-13T09:59:36.610Z,8.77
2017-11-13T10:02:05.550Z,8.27
2017-11-13T10:04:34.459Z,9.05
2017-11-13T10:07:03.439Z,8.98
2017-11-13T10:09:31.450Z,8.75
2017-11-13T10:12:01.251Z,9.15
2017-11-13T10:14:30.041Z,8.18
2017-11-13T10:16:59.818Z,6.45
2017-11-13T10:19:29.833Z,6.20
2017-11-13T10:21:58.933Z,5.97
2017-11-13T10:24:27.929Z,6.70
2017-11-13T10:26:59.589Z,6.55
2017-11-13T10:29:33.109Z,5.80
2017-11-13T10:32:01.925Z,6.60
2017-11-13T10:34:33.102Z,6.55
2017-11-13T10:37:04.058Z,8.68
2017-11-13T10:39:35.813Z,5.70
2017-11-13T10:42:03.853Z,4.43
2017-11-13T10:44:35.429Z,5.50
2017-11-13T10:47:03.461Z,5.03
2017-11-13T10:49:33.137Z,4.60
2017-11-13T10:52:02.061Z,5.80
2017-11-13T10:54:33.725Z,4.25
2017-11-13T10:57:02.649Z,3.78
2017-11-13T10:59:30.669Z,6.55
2017-11-13T11:01:58.701Z,3.42
2017-11-13T11:04:27.485Z,4.45
2017-11-13T11:06:55.510Z,6.32
2017-11-13T11:09:23.549Z,4.72
2017-11-13T11:11:52.502Z,4.60
2017-11-13T11:14:20.950Z,4.30
2017-11-13T11:17:05.754Z,5.40
2017-11-13T11:19:36.374Z,5.28
2017-11-13T11:22:11.917Z,4.32
2017-11-13T11:24:40.823Z,4.80
2017-11-13T11:27:12.381Z,4.37
2017-11-13T11:29:45.046Z,3.72
2017-11-13T11:32:18.697Z,6.32
2017-11-13T11:37:57.086Z,7.22
2017-11-13T11:40:26.513Z,3.90
2017-11-13T11:42:54.545Z,4.10
2017-11-13T11:45:25.525Z,4.30
2017-11-13T11:48:06.281Z,9.38
2017-11-13T11:50:35.965Z,3.92
2017-11-13T11:53:05.974Z,3.03
2017-11-13T11:55:35.833Z,3.85
2017-11-13T11:58:03.853Z,3.20
2017-11-13T12:00:34.905Z,3.40
2017-11-13T12:03:03.161Z,7.28
2017-11-13T12:05:36.815Z,2.75
2017-11-13T12:08:06.549Z,2.55
2017-11-13T12:10:34.585Z,3.25
2017-11-13T12:13:02.641Z,3.85
2017-11-13T12:15:30.672Z,4.05
2017-11-13T12:18:03.205Z,3.40
2017-11-13T12:20:36.162Z,4.82
2017-11-13T12:23:04.185Z,3.90
2017-11-13T12:25:33.106Z,3.00
2017-11-13T12:28:05.833Z,2.87
2017-11-13T12:30:35.597Z,3.80
2017-11-13T12:33:04.513Z,6.93
2017-11-13T12:35:33.444Z,2.95
2017-11-13T12:38:07.190Z,3.15
2017-11-13T12:40:35.217Z,4.55
2017-11-13T12:43:03.237Z,4.30
2017-11-13T12:45:35.713Z,5.97
2017-11-13T12:48:03.746Z,3.87
2017-11-13T12:50:32.762Z,3.62
2017-11-13T12:53:00.807Z,4.35
2017-11-13T12:55:33.105Z,6.75
2017-11-13T12:58:02.046Z,7.60
2017-11-13T13:00:30.969Z,5.78
2017-11-13T13:02:59.990Z,3.20
2017-11-13T13:05:28.913Z,5.78
2017-11-13T13:07:56.935Z,2.60
2017-11-13T13:10:33.198Z,2.08
2017-11-13T13:13:04.350Z,2.30
2017-11-13T13:15:36.319Z,3.22
2017-11-13T13:18:07.094Z,2.83
2017-11-13T13:20:36.277Z,2.95
2017-11-13T13:23:04.309Z,4.13
2017-11-13T13:25:32.358Z,4.60
2017-11-13T13:28:02.426Z,2.90
2017-11-13T13:30:32.109Z,2.20
2017-11-13T13:33:00.137Z,6.47
2017-11-13T13:35:29.086Z,2.25
2017-11-13T13:37:57.254Z,2.60
2017-11-13T13:40:25.273Z,3.15
2017-11-13T13:42:54.217Z,3.10
2017-11-13T13:45:24.218Z,4.03
2017-11-13T13:47:53.133Z,3.30
2017-11-13T13:50:25.795Z,3.45
2017-11-13T13:52:57.441Z,1.65
2017-11-13T13:55:25.458Z,2.85
2017-11-13T13:57:56.881Z,6.70
2017-11-13T14:00:25.678Z,5.57
2017-11-13T14:02:54.469Z,5.72
2017-11-13T14:05:27.042Z,4.60
2017-11-13T14:07:57.381Z,2.25
2017-11-13T14:10:26.318Z,2.65
2017-11-13T14:12:55.249Z,3.03
2017-11-13T14:15:28.209Z,2.47
2017-11-13T14:17:56.222Z,2.37
2017-11-13T14:20:27.157Z,2.65
2017-11-13T14:22:55.173Z,3.65
2017-11-13T14:25:23.196Z,4.07
2017-11-13T14:27:51.229Z,7.03
2017-11-13T14:30:20.140Z,3.22
2017-11-13T14:32:51.768Z,2.12
2017-11-13T14:35:26.189Z,2.90
2017-11-13T14:37:54.209Z,3.40
2017-11-13T14:40:22.216Z,3.72
2017-11-13T14:42:50.249Z,3.65
2017-11-13T14:45:23.372Z,2.83
2017-11-13T14:47:51.423Z,2.60
2017-11-13T14:50:20.438Z,3.67
2017-11-13T14:52:48.454Z,1.98
2017-11-13T14:55:17.264Z,2.83
2017-11-13T14:57:45.285Z,3.55
2017-11-13T15:00:23.349Z,3.47
2017-11-13T15:02:51.387Z,4.03
2017-11-13T15:05:20.160Z,4.57
2017-11-13T15:07:50.084Z,3.53
2017-11-13T15:10:18.880Z,4.30
2017-11-13T15:12:48.536Z,3.72
2017-11-13T15:15:19.960Z,3.15
2017-11-13T15:17:49.897Z,2.55
2017-11-13T15:20:19.921Z,2.75
2017-11-13T15:22:47.920Z,2.40
2017-11-13T15:25:22.088Z,2.53
2017-11-13T15:27:50.992Z,8.80
2017-11-13T15:30:19.012Z,3.35
2017-11-13T15:32:47.028Z,1.65
2017-11-13T15:35:20.720Z,1.52
2017-11-13T15:37:49.716Z,2.10
2017-11-13T15:40:31.396Z,3.20
2017-11-13T15:43:00.308Z,1.40
2017-11-13T15:45:28.316Z,6.80
2017-11-13T15:48:02.185Z,6.90
2017-11-13T15:50:32.101Z,4.12
2017-11-13T15:53:01.016Z,7.22
2017-11-13T15:55:31.004Z,4.75
2017-11-13T15:57:59.020Z,5.37
2017-11-13T16:00:27.948Z,5.50
2017-11-13T16:02:57.876Z,7.90
2017-11-13T16:05:26.779Z,6.28
2017-11-13T16:07:54.797Z,5.87
2017-11-13T16:10:22.839Z,4.15
2017-11-13T16:12:51.620Z,4.10
2017-11-13T16:15:20.400Z,3.97
2017-11-13T16:17:49.375Z,4.85
2017-11-13T16:20:22.452Z,8.10
2017-11-13T16:22:51.451Z,7.07
2017-11-13T16:25:22.896Z,10.60
2017-11-13T16:27:55.195Z,25.90
2017-11-13T16:30:23.231Z,59.97
2017-11-13T16:32:58.806Z,112.05
2017-11-13T16:35:27.807Z,71.87
2017-11-13T16:37:56.796Z,51.10
2017-11-13T16:40:25.603Z,47.55
2017-11-13T16:42:54.395Z,36.30
2017-11-13T16:45:23.315Z,27.83
2017-11-13T16:47:51.376Z,27.45
2017-11-13T16:50:21.315Z,22.13
2017-11-13T16:52:49.343Z,22.45
2017-11-13T16:55:29.119Z,21.55
2017-11-13T16:58:04.856Z,16.70
2017-11-13T17:00:36.612Z,18.33
2017-11-13T17:03:08.447Z,19.30
2017-11-13T17:05:37.410Z,17.52
2017-11-13T17:08:07.019Z,23.23
2017-11-13T17:10:35.044Z,25.35
2017-11-13T17:13:04.095Z,21.15
2017-11-13T17:15:32.882Z,25.70
2017-11-13T17:18:01.671Z,27.15
2017-11-13T17:20:30.474Z,21.87
2017-11-13T17:23:04.991Z,18.50
2017-11-13T17:25:33.027Z,21.75
2017-11-13T17:28:02.942Z,12.60
2017-11-13T17:30:33.887Z,15.95
2017-11-13T17:33:01.911Z,16.10
2017-11-13T17:35:31.848Z,17.20
2017-11-13T17:38:04.535Z,14.55
2017-11-13T17:40:34.550Z,13.25
2017-11-13T17:43:03.555Z,10.68
2017-11-13T17:45:35.823Z,12.15
2017-11-13T17:48:04.823Z,14.52
2017-11-13T17:50:36.574Z,27.37
2017-11-13T17:53:07.482Z,23.00
2017-11-13T17:55:35.502Z,26.87
2017-11-13T17:58:04.286Z,31.55
2017-11-13T18:00:37.806Z,29.20
2017-11-13T18:03:09.334Z,32.58
2017-11-13T18:05:38.134Z,14.73
2017-11-13T18:08:09.043Z,5.15
2017-11-13T18:10:37.046Z,4.00
2017-11-13T18:13:05.994Z,4.30
2017-11-13T18:15:36.008Z,4.60
2017-11-13T18:18:07.050Z,5.78
2017-11-13T18:20:35.071Z,6.30
2017-11-13T18:23:03.126Z,10.18
2017-11-13T18:25:32.090Z,9.75
2017-11-13T18:28:04.550Z,6.78
2017-11-13T18:30:34.582Z,8.13
2017-11-13T18:33:07.359Z,6.72
2017-11-13T18:35:36.362Z,8.88
2017-11-13T18:38:11.674Z,8.52
2017-11-13T18:40:39.699Z,11.35
2017-11-13T18:43:07.743Z,9.68
2017-11-13T18:45:36.706Z,10.70
2017-11-13T18:48:07.699Z,10.68
2017-11-13T18:50:38.806Z,11.63
2017-11-13T18:53:06.883Z,16.42
2017-11-13T18:55:34.923Z,17.00
2017-11-13T18:58:05.937Z,20.20
2017-11-13T19:00:38.618Z,18.50
2017-11-13T19:03:08.614Z,19.00
2017-11-13T19:05:36.734Z,17.48
2017-11-13T19:08:06.834Z,17.98
2017-11-13T19:10:35.905Z,16.77
2017-11-13T19:13:04.881Z,13.40
2017-11-13T19:15:34.804Z,14.77
2017-11-13T19:18:06.750Z,10.65
2017-11-13T19:20:35.557Z,12.68
2017-11-13T19:23:06.669Z,12.13
2017-11-13T19:25:36.593Z,24.80
2017-11-13T19:28:05.401Z,19.15
2017-11-13T19:30:38.115Z,15.75
2017-11-13T19:33:07.074Z,14.73
2017-11-13T19:35:37.006Z,15.95
2017-11-13T19:38:06.963Z,13.62
2017-11-13T19:40:34.993Z,12.32
2017-11-13T19:43:04.949Z,12.20
2017-11-13T19:45:37.325Z,16.60
2017-11-13T19:48:05.350Z,11.10
2017-11-13T19:50:34.405Z,11.77
2017-11-13T19:53:05.085Z,11.30
2017-11-13T19:55:39.692Z,16.92
2017-11-13T19:58:08.506Z,22.10
2017-11-13T20:00:39.669Z,32.70
2017-11-13T20:03:08.689Z,20.90
2017-11-13T20:05:37.665Z,24.77
2017-11-13T20:08:05.695Z,14.07
2017-11-13T20:10:34.757Z,11.90
2017-11-13T20:13:03.564Z,9.65
2017-11-13T20:15:35.478Z,9.52
2017-11-13T20:18:07.526Z,14.93
2017-11-13T20:20:35.585Z,7.82
2017-11-13T20:23:03.606Z,8.38
2017-11-13T20:25:32.577Z,9.15
2017-11-13T20:28:02.589Z,16.27
2017-11-13T20:30:31.377Z,7.82
2017-11-13T20:33:00.181Z,7.05
2017-11-13T20:35:29.017Z,9.38
2017-11-13T20:37:59.808Z,9.65
2017-11-13T20:40:29.616Z,13.23
2017-11-13T20:42:57.657Z,13.50
2017-11-13T20:45:25.708Z,16.17
2017-11-13T20:47:53.745Z,12.90
2017-11-13T20:50:21.789Z,15.82
2017-11-13T20:52:51.577Z,17.77
2017-11-13T20:55:20.598Z,13.48
2017-11-13T20:57:53.773Z,11.85
2017-11-13T21:00:22.589Z,15.43
2017-11-13T21:02:50.621Z,14.65
2017-11-13T21:05:18.653Z,23.55
2017-11-13T21:07:51.244Z,26.12
2017-11-13T21:10:19.284Z,17.65
2017-11-13T21:12:52.561Z,21.75
2017-11-13T21:15:21.516Z,18.65
2017-11-13T21:17:50.445Z,40.42
2017-11-13T21:20:19.577Z,28.98
2017-11-13T21:22:47.620Z,27.42
2017-11-13T21:25:15.665Z,32.50
2017-11-13T21:27:44.492Z,28.20
2017-11-13T21:30:12.528Z,19.48
2017-11-13T21:32:43.240Z,28.80
2017-11-13T21:35:11.284Z,27.73
2017-11-13T21:37:39.333Z,26.77
2017-11-13T21:40:07.396Z,31.87
2017-11-13T21:42:36.353Z,26.77
2017-11-13T21:45:06.062Z,26.27
2017-11-13T21:47:35.877Z,16.90
2017-11-13T21:50:05.705Z,16.20
2017-11-13T21:52:39.220Z,21.12
2017-11-13T21:55:07.268Z,15.27
2017-11-13T21:57:35.304Z,10.43
2017-11-13T22:00:03.349Z,20.40
2017-11-13T22:02:32.369Z,12.68
2017-11-13T22:05:04.141Z,117.93
2017-11-13T22:07:33.056Z,16.60
2017-11-13T22:10:01.088Z,22.48
2017-11-13T22:12:30.065Z,11.27
2017-11-13T22:14:58.097Z,29.15
2017-11-13T22:17:27.044Z,156.57
2017-11-13T22:19:55.097Z,25.65
2017-11-13T22:22:25.129Z,11.25
2017-11-13T22:24:55.176Z,20.90
2017-11-13T22:27:23.221Z,30.33
2017-11-13T22:29:51.249Z,15.20
2017-11-13T22:32:20.063Z,44.38
2017-11-13T22:34:48.094Z,14.77
2017-11-13T22:37:16.133Z,17.23
2017-11-13T22:39:46.932Z,17.25
2017-11-13T22:42:15.937Z,17.05
2017-11-13T22:44:44.945Z,12.70
2017-11-13T22:47:13.764Z,22.83
2017-11-13T22:49:41.816Z,16.15
2017-11-13T22:52:10.638Z,14.85
2017-11-13T22:54:38.657Z,16.05
2017-11-13T22:57:07.652Z,36.20
2017-11-13T22:59:36.489Z,13.75
2017-11-13T23:02:04.534Z,11.18
2017-11-13T23:04:33.369Z,53.45
2017-11-13T23:07:03.442Z,57.20
2017-11-13T23:09:37.297Z,45.30
2017-11-13T23:12:05.346Z,66.82
2017-11-13T23:14:37.224Z,216.40
2017-11-13T23:17:06.041Z,141.50
2017-11-13T23:19:34.841Z,145.38
2017-11-13T23:22:03.992Z,116.45
2017-11-13T23:24:36.188Z,64.43
2017-11-13T23:27:05.217Z,65.62
2017-11-13T23:29:33.256Z,116.68
2017-11-13T23:32:03.264Z,100.47
2017-11-13T23:34:31.308Z,97.50
2017-11-13T23:37:00.120Z,57.38
2017-11-13T23:39:34.308Z,102.35
2017-11-13T23:42:05.620Z,50.85
2017-11-13T23:44:33.701Z,88.32
2017-11-13T23:47:01.724Z,96.25
2017-11-13T23:49:32.496Z,53.83
2017-11-13T23:52:05.436Z,30.70
2017-11-13T23:54:37.396Z,141.65
2017-11-13T23:57:05.447Z,36.13
2017-11-13T23:59:33.467Z,45.92
